createdAt,value
2022-12-01T00:00:40.426Z,31.63
2022-12-01T00:04:40.570Z,28.43
2022-12-01T00:08:41.297Z,27.13
2022-12-01T00:12:40.502Z,29.9
2022-12-01T00:16:41.211Z,31.07
2022-12-01T00:20:40.575Z,31.73
2022-12-01T00:24:40.649Z,31.67
2022-12-01T00:28:40.509Z,32.83
2022-12-01T00:32:40.489Z,32.1
2022-12-01T00:36:40.446Z,33.9
2022-12-01T00:40:40.821Z,30.57
2022-12-01T00:44:40.460Z,32.2
2022-12-01T00:48:40.469Z,28.67
2022-12-01T00:52:40.435Z,29.83
2022-12-01T00:56:40.397Z,32.87
2022-12-01T01:00:40.501Z,30.3
2022-12-01T01:04:40.516Z,29.77
2022-12-01T01:08:40.670Z,29.9
2022-12-01T01:12:40.266Z,29.33
2022-12-01T01:16:40.577Z,32.03
2022-12-01T01:20:40.570Z,29.93
2022-12-01T01:24:40.516Z,30.93
2022-12-01T01:28:40.495Z,34.13
2022-12-01T01:32:40.614Z,31.33
2022-12-01T01:36:40.439Z,27.53
2022-12-01T01:40:40.518Z,26.77
2022-12-01T01:44:40.520Z,28.27
2022-12-01T01:48:39.820Z,30.07
2022-12-01T01:52:40.996Z,29.07
2022-12-01T01:56:40.483Z,30.03
2022-12-01T02:00:40.449Z,31.07
2022-12-01T02:04:40.989Z,30.63
2022-12-01T02:08:40.664Z,33.43
2022-12-01T02:12:40.585Z,30.73
2022-12-01T02:16:40.064Z,30.33
2022-12-01T02:20:41.299Z,24.9
2022-12-01T02:24:40.815Z,27.4
2022-12-01T02:28:40.496Z,31.23
2022-12-01T02:32:40.685Z,26.9
2022-12-01T02:36:40.438Z,28.8
2022-12-01T02:40:40.456Z,26.53
2022-12-01T02:44:40.336Z,28.5
2022-12-01T02:48:40.876Z,28.3
2022-12-01T02:52:40.508Z,29.83
2022-12-01T02:56:40.501Z,30.17
2022-12-01T03:00:40.415Z,25.07
2022-12-01T03:04:40.663Z,31.7
2022-12-01T03:08:40.481Z,29.97
2022-12-01T03:12:40.625Z,31.77
2022-12-01T03:16:40.854Z,29.5
2022-12-01T03:20:40.557Z,29.67
2022-12-01T03:24:40.770Z,29.5
2022-12-01T03:28:40.656Z,31.47
2022-12-01T03:32:40.534Z,29.2
2022-12-01T03:36:40.510Z,26.93
2022-12-01T03:40:40.606Z,29.83
2022-12-01T03:44:40.499Z,26.13
2022-12-01T03:48:40.314Z,28.43
2022-12-01T03:52:41.179Z,28
2022-12-01T03:56:41.120Z,29.63
2022-12-01T04:00:40.558Z,30
2022-12-01T04:04:40.296Z,28.83
2022-12-01T04:08:40.650Z,26.9
2022-12-01T04:12:40.595Z,29.1
2022-12-01T04:16:40.531Z,29.07
2022-12-01T04:20:40.506Z,31.33
2022-12-01T04:24:39.869Z,27.27
2022-12-01T04:28:41.068Z,26.8
2022-12-01T04:32:40.553Z,25.73
2022-12-01T04:36:40.304Z,25.43
2022-12-01T04:40:40.686Z,28.73
2022-12-01T04:44:40.469Z,30.67
2022-12-01T04:48:40.995Z,31.7
2022-12-01T04:52:41.021Z,28.9
2022-12-01T04:56:40.358Z,30.7
2022-12-01T05:00:40.488Z,27.1
2022-12-01T05:04:40.044Z,27.7
2022-12-01T05:08:41.224Z,26.17
2022-12-01T05:12:40.652Z,29.73
2022-12-01T05:16:40.604Z,28.93
2022-12-01T05:20:40.561Z,30.37
2022-12-01T05:24:40.427Z,30.47
2022-12-01T05:28:40.548Z,31.5
2022-12-01T05:32:40.777Z,26.83
2022-12-01T05:36:40.553Z,28.37
2022-12-01T05:40:41.006Z,28.83
2022-12-01T05:44:40.506Z,29.5
2022-12-01T05:48:40.521Z,24.7
2022-12-01T05:52:40.549Z,27.27
2022-12-01T05:56:40.534Z,28.77
2022-12-01T06:00:45.603Z,27.57
2022-12-01T06:04:40.459Z,26.47
2022-12-01T06:08:40.727Z,29.2
2022-12-01T06:12:39.493Z,28.5
2022-12-01T06:16:40.542Z,26.67
2022-12-01T06:20:40.971Z,23.63
2022-12-01T06:24:40.382Z,25.37
2022-12-01T06:28:40.457Z,27.03
2022-12-01T06:32:40.413Z,26.3
2022-12-01T06:36:40.676Z,27.07
2022-12-01T06:40:40.460Z,27.57
2022-12-01T06:44:39.661Z,30.1
2022-12-01T06:48:40.035Z,30.6
2022-12-01T06:52:40.569Z,29.97
2022-12-01T06:56:40.300Z,32.17
2022-12-01T07:00:40.892Z,28.63
2022-12-01T07:04:40.557Z,30.2
2022-12-01T07:08:40.548Z,30.13
2022-12-01T07:12:40.607Z,29.07
2022-12-01T07:16:40.545Z,26.6
2022-12-01T07:20:40.587Z,30.17
2022-12-01T07:24:40.542Z,30.97
2022-12-01T07:28:40.536Z,27.83
2022-12-01T07:32:40.261Z,26.97
2022-12-01T07:36:39.906Z,25.2
2022-12-01T07:40:40.687Z,31.3
2022-12-01T07:44:40.659Z,30.47
2022-12-01T07:48:40.271Z,27.37
2022-12-01T07:52:40.419Z,29.9
2022-12-01T07:56:40.395Z,31.7
2022-12-01T08:00:41.154Z,28.97
2022-12-01T08:04:40.958Z,28.97
2022-12-01T08:08:40.627Z,28.67
2022-12-01T08:12:40.575Z,29.73
2022-12-01T08:16:40.616Z,31.07
2022-12-01T08:20:40.786Z,29.6
2022-12-01T08:24:40.671Z,28.5
2022-12-01T08:28:40.968Z,30.4
2022-12-01T08:32:40.555Z,30.7
2022-12-01T08:36:40.353Z,31.03
2022-12-01T08:40:40.562Z,34.13
2022-12-01T08:44:40.881Z,32.5
2022-12-01T08:48:40.562Z,33.43
2022-12-01T08:52:39.643Z,27.23
2022-12-01T08:56:41.133Z,33.33
2022-12-01T09:00:40.664Z,29.47
2022-12-01T09:04:40.535Z,29.37
2022-12-01T09:08:40.687Z,26.83
2022-12-01T09:12:40.739Z,33.37
2022-12-01T09:16:40.260Z,32.17
2022-12-01T09:20:39.345Z,36.6
2022-12-01T09:24:40.700Z,31.83
2022-12-01T09:28:40.658Z,34.03
2022-12-01T09:32:40.624Z,30.67
2022-12-01T09:36:40.294Z,34.7
2022-12-01T09:40:40.590Z,33.2
2022-12-01T09:44:41.255Z,35.2
2022-12-01T09:48:40.531Z,36.13
2022-12-01T09:52:41.022Z,35.8
2022-12-01T09:56:40.552Z,33.77
2022-12-01T10:00:40.672Z,31.1
2022-12-01T10:04:40.484Z,32.77
2022-12-01T10:08:40.689Z,38.07
2022-12-01T10:12:40.561Z,35.83
2022-12-01T10:16:40.744Z,36.83
2022-12-01T10:20:40.447Z,33.7
2022-12-01T10:24:41.190Z,30.97
2022-12-01T10:28:40.612Z,31.07
2022-12-01T10:32:40.667Z,30.47
2022-12-01T10:36:40.442Z,30.5
2022-12-01T10:40:40.687Z,29.87
2022-12-01T10:44:40.545Z,27.7
2022-12-01T10:48:40.517Z,30.6
2022-12-01T10:52:40.496Z,31
2022-12-01T10:56:40.292Z,30.57
2022-12-01T11:00:59.119Z,31.47
2022-12-01T11:04:40.600Z,29.77
2022-12-01T11:08:40.649Z,29.23
2022-12-01T11:12:40.582Z,27.57
2022-12-01T11:16:40.560Z,27.83
2022-12-01T11:20:40.798Z,28.13
2022-12-01T11:24:40.885Z,26.03
2022-12-01T11:28:40.287Z,23.67
2022-12-01T11:32:40.471Z,21.1
2022-12-01T11:36:41.184Z,23.7
2022-12-01T11:40:40.645Z,25.37
2022-12-01T11:44:51.426Z,25.37
2022-12-01T11:48:40.424Z,23.1
2022-12-01T11:52:40.480Z,24.53
2022-12-01T11:56:40.475Z,23.27
2022-12-01T12:00:40.701Z,23.33
2022-12-01T12:04:40.784Z,24.2
2022-12-01T12:08:40.893Z,20.9
2022-12-01T12:12:40.642Z,20.2
2022-12-01T12:16:40.647Z,21.57
2022-12-01T12:20:41.384Z,20.47
2022-12-01T12:24:40.399Z,21.47
2022-12-01T12:28:41.254Z,22.73
2022-12-01T12:32:40.488Z,22.6
2022-12-01T12:36:40.579Z,19.5
2022-12-01T12:40:40.488Z,19.07
2022-12-01T12:44:39.507Z,18.7
2022-12-01T12:49:03.466Z,20.43
2022-12-01T12:52:40.562Z,20.83
2022-12-01T12:56:40.816Z,18.9
2022-12-01T13:00:40.538Z,18.13
2022-12-01T13:04:40.545Z,17.47
2022-12-01T13:08:40.587Z,20.77
2022-12-01T13:12:40.489Z,19.77
2022-12-01T13:16:40.531Z,20.8
2022-12-01T13:20:40.591Z,19.57
2022-12-01T13:24:40.502Z,18.83
2022-12-01T13:28:40.819Z,20.2
2022-12-01T13:32:40.513Z,21.07
2022-12-01T13:36:47.800Z,19.93
2022-12-01T13:40:41.206Z,19.97
2022-12-01T13:44:40.615Z,21.77
2022-12-01T13:48:40.838Z,20.7
2022-12-01T13:52:41.235Z,21.57
2022-12-01T13:56:41.098Z,19.87
2022-12-01T14:00:41.198Z,21.8
2022-12-01T14:04:40.668Z,22.77
2022-12-01T14:08:41.129Z,22.83
2022-12-01T14:12:40.562Z,23.83
2022-12-01T14:16:40.629Z,24.07
2022-12-01T14:20:40.444Z,24.63
2022-12-01T14:24:40.961Z,23.4
2022-12-01T14:28:40.589Z,25.53
2022-12-01T14:32:40.510Z,24.73
2022-12-01T14:36:40.374Z,25.53
2022-12-01T14:40:40.626Z,26.83
2022-12-01T14:44:39.636Z,26.3
2022-12-01T14:48:40.836Z,25.33
2022-12-01T14:52:40.487Z,25.7
2022-12-01T14:56:40.599Z,28.2
2022-12-01T15:00:41.025Z,26.37
2022-12-01T15:04:40.673Z,26.83
2022-12-01T15:08:45.777Z,25.93
2022-12-01T15:12:40.421Z,27.97
2022-12-01T15:16:40.473Z,25.57
2022-12-01T15:20:46.373Z,28.63
2022-12-01T15:24:40.044Z,27.47
2022-12-01T15:28:40.644Z,27.17
2022-12-01T15:32:40.608Z,27.33
2022-12-01T15:36:40.001Z,27.43
2022-12-01T15:41:06.628Z,27.97
2022-12-01T15:44:40.620Z,26.83
2022-12-01T15:48:40.557Z,26.97
2022-12-01T15:52:41.202Z,28.57
2022-12-01T15:56:41.171Z,29.8
2022-12-01T16:00:40.758Z,29.57
2022-12-01T16:04:40.895Z,28.53
2022-12-01T16:08:41.306Z,26.27
2022-12-01T16:12:40.568Z,27.93
2022-12-01T16:16:40.375Z,28.93
2022-12-01T16:20:40.380Z,27.23
2022-12-01T16:24:40.788Z,26.67
2022-12-01T16:28:39.885Z,29.07
2022-12-01T16:32:40.777Z,25.87
2022-12-01T16:36:40.524Z,26.83
2022-12-01T16:40:40.596Z,27.8
2022-12-01T16:44:40.994Z,27.3
2022-12-01T16:48:40.301Z,28.47
2022-12-01T16:52:45.031Z,29.97
2022-12-01T16:56:41.215Z,27.03
2022-12-01T17:00:40.627Z,26.77
2022-12-01T17:04:41.197Z,28.23
2022-12-01T17:08:40.714Z,25
2022-12-01T17:12:40.542Z,28.8
2022-12-01T17:16:40.290Z,29.33
2022-12-01T17:20:40.465Z,27.13
2022-12-01T17:24:40.891Z,30.77
2022-12-01T17:28:40.681Z,28.57
2022-12-01T17:32:40.586Z,29.77
2022-12-01T17:36:40.458Z,31.4
2022-12-01T17:40:40.476Z,29.8
2022-12-01T17:44:40.505Z,29.8
2022-12-01T17:48:40.452Z,32.3
2022-12-01T17:52:41.240Z,30.47
2022-12-01T17:56:40.533Z,30.33
2022-12-01T18:00:40.914Z,29.43
2022-12-01T18:04:40.854Z,32.23
2022-12-01T18:08:39.956Z,32.07
2022-12-01T18:12:39.470Z,29.13
2022-12-01T18:16:40.729Z,30.57
2022-12-01T18:20:40.703Z,32.33
2022-12-01T18:24:40.522Z,32.83
2022-12-01T18:28:40.492Z,32.67
2022-12-01T18:32:40.721Z,30.07
2022-12-01T18:36:40.500Z,30.87
2022-12-01T18:40:40.468Z,32.07
2022-12-01T18:44:40.280Z,32.4
2022-12-01T18:48:40.637Z,32.1
2022-12-01T18:52:40.418Z,31.03
2022-12-01T18:56:40.574Z,30.97
2022-12-01T19:00:40.652Z,31.83
2022-12-01T19:04:40.654Z,32.2
2022-12-01T19:08:40.673Z,33.63
2022-12-01T19:12:41.264Z,31.6
2022-12-01T19:16:40.692Z,31.77
2022-12-01T19:20:40.567Z,33.2
2022-12-01T19:24:40.551Z,30.73
2022-12-01T19:28:40.632Z,29.77
2022-12-01T19:32:40.905Z,33.17
2022-12-01T19:36:40.386Z,30.93
2022-12-01T19:40:40.549Z,32.7
2022-12-01T19:44:40.491Z,31.9
2022-12-01T19:48:40.537Z,34.5
2022-12-01T19:52:40.532Z,31.5
2022-12-01T19:56:40.534Z,32
2022-12-01T20:00:40.623Z,30.2
2022-12-01T20:04:40.269Z,31.33
2022-12-01T20:08:40.542Z,33.43
2022-12-01T20:12:40.846Z,31.53
2022-12-01T20:16:40.674Z,32.43
2022-12-01T20:20:40.525Z,31.67
2022-12-01T20:24:40.476Z,32.43
2022-12-01T20:28:40.707Z,32.9
2022-12-01T20:32:41.180Z,30.7
2022-12-01T20:36:40.429Z,31.4
2022-12-01T20:40:40.556Z,30.67
2022-12-01T20:44:41.056Z,31.07
2022-12-01T20:48:40.681Z,32.73
2022-12-01T20:52:40.564Z,31.93
2022-12-01T20:56:40.634Z,32.17
2022-12-01T21:00:40.911Z,30.5
2022-12-01T21:04:40.801Z,31.97
2022-12-01T21:08:40.612Z,30.33
2022-12-01T21:12:40.759Z,32.2
2022-12-01T21:16:40.356Z,31.63
2022-12-01T21:20:40.591Z,32.43
2022-12-01T21:24:43.784Z,31.87
2022-12-01T21:28:40.527Z,32.93
2022-12-01T21:32:43.882Z,33.1
2022-12-01T21:36:40.653Z,33.5
2022-12-01T21:40:40.509Z,31.37
2022-12-01T21:44:40.390Z,32.07
2022-12-01T21:48:40.315Z,32.23
2022-12-01T21:52:40.470Z,30.77
2022-12-01T21:56:40.556Z,32.83
2022-12-01T22:00:40.534Z,31.43
2022-12-01T22:04:40.588Z,32.2
2022-12-01T22:08:40.425Z,33.67
2022-12-01T22:12:40.671Z,32.4
2022-12-01T22:16:40.680Z,34.83
2022-12-01T22:20:40.510Z,33.73
2022-12-01T22:24:41.083Z,32.77
2022-12-01T22:28:41.154Z,32.5
2022-12-01T22:32:40.696Z,31.33
2022-12-01T22:36:40.573Z,31.83
2022-12-01T22:40:40.446Z,32.8
2022-12-01T22:44:40.592Z,32.3
2022-12-01T22:48:40.534Z,32.03
2022-12-01T22:52:40.677Z,30.87
2022-12-01T22:56:40.520Z,33.33
2022-12-01T23:00:39.684Z,32.03
2022-12-01T23:04:40.977Z,34
2022-12-01T23:08:40.541Z,31.23
2022-12-01T23:12:40.479Z,32
2022-12-01T23:16:40.458Z,31.43
2022-12-01T23:20:40.484Z,30.97
2022-12-01T23:24:40.202Z,31.6
2022-12-01T23:28:40.507Z,31.53
2022-12-01T23:32:40.469Z,33.8
2022-12-01T23:36:40.511Z,30.57
2022-12-01T23:40:40.523Z,33.93
2022-12-01T23:44:40.402Z,33.23
2022-12-01T23:48:40.548Z,33.93
2022-12-01T23:52:40.454Z,34.97
2022-12-01T23:56:40.703Z,29.83
